createdAt,value
2023-04-22T00:01:17.044Z,16958.81
2023-04-22T00:05:20.516Z,16971.09
2023-04-22T00:09:22.341Z,16983.38
2023-04-22T00:13:23.808Z,16958.81
2023-04-22T00:17:26.551Z,16981.31
2023-04-22T00:21:28.072Z,16962.91
2023-04-22T00:25:29.566Z,16973.13
2023-04-22T00:29:30.956Z,16987.44
2023-04-22T00:33:34.754Z,16954.72
2023-04-22T00:37:36.285Z,16993.59
2023-04-22T00:41:38.950Z,16985.41
2023-04-22T00:45:42.126Z,16969.03
2023-04-22T00:49:46.188Z,16967.00
2023-04-22T00:53:47.757Z,16969.03
2023-04-22T00:57:50.540Z,16975.19
2023-04-22T01:01:52.243Z,17014.03
2023-04-22T01:05:55.892Z,17007.91
2023-04-22T01:09:57.818Z,17014.03
2023-04-22T01:13:59.180Z,16989.50
2023-04-22T01:18:00.683Z,17007.91
2023-04-22T01:22:04.554Z,17020.19
2023-04-22T01:26:07.452Z,17005.84
2023-04-22T01:30:10.094Z,16967.00
2023-04-22T01:34:11.739Z,16971.09
2023-04-22T01:38:13.534Z,17012.00
2023-04-22T01:42:16.368Z,16981.31
2023-04-22T01:46:17.877Z,16991.53
2023-04-22T01:50:20.151Z,17016.09
2023-04-22T01:54:21.815Z,17016.09
2023-04-22T01:58:24.583Z,17020.19
2023-04-22T02:02:26.504Z,16985.41
2023-04-22T02:06:27.994Z,17048.81
2023-04-22T02:10:29.472Z,17032.44
2023-04-22T02:14:32.443Z,17022.22
2023-04-22T02:18:33.989Z,17003.81
2023-04-22T02:22:35.451Z,16981.31
2023-04-22T02:26:36.902Z,16993.59
2023-04-22T02:30:39.710Z,17012.00
2023-04-22T02:34:42.716Z,17007.91
2023-04-22T02:38:44.150Z,16989.50
2023-04-22T02:42:45.541Z,17001.78
2023-04-22T02:46:48.340Z,16985.41
2023-04-22T02:50:49.742Z,17001.78
2023-04-22T02:54:51.111Z,16983.38
2023-04-22T02:58:52.530Z,16995.63
2023-04-22T03:02:55.395Z,16995.63
2023-04-22T03:06:56.861Z,16983.38
2023-04-22T03:10:58.260Z,16993.59
2023-04-22T03:14:59.736Z,17020.19
2023-04-22T03:19:02.569Z,17003.81
2023-04-22T03:23:04.085Z,17022.22
2023-04-22T03:27:05.917Z,17001.78
2023-04-22T03:31:07.325Z,17016.09
2023-04-22T03:35:10.871Z,17009.94
2023-04-22T03:39:12.271Z,17048.81
2023-04-22T03:43:15.109Z,17012.00
2023-04-22T03:47:16.546Z,17026.31
2023-04-22T03:51:20.202Z,17012.00
2023-04-22T03:55:21.906Z,17009.94
2023-04-22T03:59:23.570Z,17044.72
2023-04-22T04:03:25.710Z,17014.03
2023-04-22T04:07:29.428Z,17022.22
2023-04-22T04:11:31.117Z,17003.81
2023-04-22T04:15:32.689Z,17048.81
2023-04-22T04:19:34.195Z,17024.25
2023-04-22T04:23:36.978Z,17022.22
2023-04-22T04:27:38.411Z,17044.72
2023-04-22T04:31:39.849Z,17073.34
2023-04-22T04:35:41.340Z,17065.16
2023-04-22T04:39:44.149Z,17061.09
2023-04-22T04:43:45.552Z,17057.00
2023-04-22T04:47:47.317Z,17036.53
2023-04-22T04:51:49.014Z,17046.75
2023-04-22T04:55:52.106Z,17077.44
2023-04-22T04:59:53.505Z,17077.44
2023-04-22T05:03:57.147Z,17069.25
2023-04-22T05:07:58.867Z,17097.91
2023-04-22T05:12:02.085Z,17089.72
2023-04-22T05:16:03.616Z,17104.03
2023-04-22T05:20:06.021Z,17112.22
2023-04-22T05:24:07.596Z,17097.91
2023-04-22T05:28:10.337Z,17118.34
2023-04-22T05:32:11.862Z,17126.53
2023-04-22T05:36:13.327Z,17097.91
2023-04-22T05:40:14.774Z,17099.94
2023-04-22T05:44:17.620Z,17085.63
2023-04-22T05:48:19.096Z,17120.41
2023-04-22T05:52:20.522Z,17097.91
2023-04-22T05:56:22.103Z,17097.91
2023-04-22T06:00:24.997Z,17134.72
2023-04-22T06:04:26.753Z,17126.53
2023-04-22T06:08:30.085Z,17163.34
2023-04-22T06:12:32.938Z,17155.16
2023-04-22T06:16:35.749Z,17194.03
2023-04-22T06:20:37.202Z,17566.28
2023-04-22T06:24:38.679Z,17912.00
2023-04-22T06:28:40.059Z,17983.59
2023-04-22T06:32:43.208Z,18190.22
2023-04-22T06:36:44.620Z,18114.53
2023-04-22T06:40:46.007Z,17678.81
2023-04-22T06:44:47.572Z,17519.25
2023-04-22T06:48:50.473Z,17427.19
2023-04-22T06:52:53.348Z,17447.66
2023-04-22T06:56:54.848Z,17736.06
2023-04-22T07:00:56.477Z,18278.19
2023-04-22T07:04:59.455Z,18419.38
2023-04-22T07:09:00.942Z,18468.47
2023-04-22T07:13:02.617Z,18509.41
2023-04-22T07:17:04.039Z,18272.06
2023-04-22T07:21:06.804Z,18370.28
2023-04-22T07:25:09.144Z,18509.41
2023-04-22T07:29:11.091Z,18364.13
2023-04-22T07:33:12.638Z,18497.13
2023-04-22T07:37:15.450Z,18628.06
2023-04-22T07:41:17.082Z,18572.81
2023-04-22T07:45:18.670Z,18632.16
2023-04-22T07:49:21.092Z,18734.47
2023-04-22T07:53:24.029Z,18754.94
2023-04-22T07:57:25.465Z,18775.38
2023-04-22T08:01:27.130Z,18851.09
2023-04-22T08:05:28.804Z,18597.38
2023-04-22T08:09:31.555Z,18488.94
2023-04-22T08:13:33.098Z,18693.53
2023-04-22T08:17:34.678Z,18628.06
2023-04-22T08:21:36.138Z,18664.91
2023-04-22T08:25:39.014Z,18431.66
2023-04-22T08:29:41.044Z,18355.94
2023-04-22T08:33:42.813Z,18362.09
2023-04-22T08:37:44.276Z,18382.53
2023-04-22T08:41:48.964Z,18317.06
2023-04-22T08:45:50.813Z,18683.31
2023-04-22T08:49:54.768Z,18761.06
2023-04-22T08:53:56.416Z,18820.41
2023-04-22T08:58:00.914Z,19037.31
2023-04-22T09:02:04.523Z,18836.78
2023-04-22T09:06:07.744Z,18920.66
2023-04-22T09:10:10.186Z,19090.50
2023-04-22T09:14:13.093Z,19102.78
2023-04-22T09:18:17.377Z,19158.03
2023-04-22T09:22:18.883Z,19196.91
2023-04-22T09:26:21.269Z,19184.66
2023-04-22T09:30:29.637Z,19317.66
2023-04-22T09:34:31.148Z,19008.66
2023-04-22T09:38:32.615Z,18775.38
2023-04-22T09:42:47.936Z,18982.06
2023-04-22T09:46:50.691Z,18939.09
2023-04-22T09:50:52.241Z,19182.59
2023-04-22T09:54:54.216Z,19117.13
2023-04-22T09:58:55.791Z,19264.44
2023-04-22T10:02:59.009Z,18910.44
2023-04-22T10:07:00.810Z,18754.94
2023-04-22T10:11:02.945Z,18781.53
2023-04-22T10:15:05.205Z,18754.94
2023-04-22T10:19:10.545Z,18943.19
2023-04-22T10:23:14.774Z,19153.94
2023-04-22T10:27:21.499Z,19184.66
2023-04-22T10:31:23.017Z,19170.31
2023-04-22T10:35:28.913Z,19194.88
2023-04-22T10:39:30.519Z,19217.38
2023-04-22T10:43:42.254Z,19059.81
2023-04-22T10:47:44.186Z,19096.66
2023-04-22T10:51:48.652Z,19196.91
2023-04-22T10:55:51.632Z,19303.34
2023-04-22T10:59:56.395Z,19307.44
2023-04-22T11:04:19.709Z,19368.81
2023-04-22T11:08:28.206Z,18939.09
2023-04-22T11:12:42.442Z,19027.06
2023-04-22T11:16:46.609Z,19082.31
2023-04-22T11:20:48.832Z,19094.59
2023-04-22T11:24:55.389Z,18971.81
2023-04-22T11:28:59.796Z,19012.75
2023-04-22T11:33:01.303Z,19068.00
2023-04-22T11:37:02.775Z,19090.50
2023-04-22T11:41:05.916Z,18977.97
2023-04-22T11:45:08.495Z,18924.75
2023-04-22T11:49:16.687Z,18736.50
2023-04-22T11:53:19.545Z,18601.47
2023-04-22T11:57:22.292Z,18587.16
2023-04-22T12:01:23.659Z,18591.25
2023-04-22T12:05:36.357Z,18521.66
2023-04-22T12:09:39.818Z,18523.72
2023-04-22T12:13:44.784Z,18493.03
2023-04-22T12:17:46.481Z,18609.66
2023-04-22T12:21:47.885Z,18603.50
2023-04-22T12:25:49.338Z,18558.50
2023-04-22T12:29:54.125Z,18529.84
2023-04-22T12:33:56.366Z,18550.31
2023-04-22T12:37:58.290Z,18548.28
2023-04-22T12:41:59.890Z,18519.63
2023-04-22T12:46:02.697Z,18480.75
2023-04-22T12:50:04.879Z,18409.16
2023-04-22T12:54:06.263Z,18394.81
2023-04-22T12:58:07.755Z,18398.91
2023-04-22T13:02:10.690Z,18349.81
2023-04-22T13:06:12.421Z,18370.28
2023-04-22T13:10:16.147Z,18304.81
2023-04-22T13:14:17.791Z,18241.38
2023-04-22T13:18:21.739Z,18194.31
2023-04-22T13:22:23.139Z,18182.03
2023-04-22T13:26:24.655Z,18139.09
2023-04-22T13:30:26.195Z,18163.63
2023-04-22T13:34:29.016Z,18184.09
2023-04-22T13:38:30.888Z,18128.84
2023-04-22T13:42:32.499Z,18167.72
2023-04-22T13:46:34.008Z,18149.31
2023-04-22T13:50:36.708Z,18124.75
2023-04-22T13:54:38.144Z,18110.44
2023-04-22T13:58:40.832Z,18081.81
2023-04-22T14:02:42.233Z,18114.53
2023-04-22T14:06:45.056Z,18145.22
2023-04-22T14:10:46.480Z,18100.22
2023-04-22T14:14:47.867Z,18104.31
2023-04-22T14:18:49.982Z,18132.94
2023-04-22T14:22:52.917Z,18094.06
2023-04-22T14:26:55.559Z,18104.31
2023-04-22T14:30:57.077Z,18063.38
2023-04-22T14:34:58.496Z,18083.84
2023-04-22T14:39:01.268Z,18047.03
2023-04-22T14:43:05.927Z,18004.06
2023-04-22T14:47:07.328Z,17971.31
2023-04-22T14:51:08.800Z,17899.72
2023-04-22T14:55:21.874Z,17879.28
2023-04-22T14:59:24.512Z,17768.81
2023-04-22T15:03:26.004Z,17768.81
2023-04-22T15:07:27.728Z,17746.31
2023-04-22T15:11:30.665Z,17748.34
2023-04-22T15:15:32.097Z,17840.41
2023-04-22T15:19:33.546Z,17817.91
2023-04-22T15:23:34.931Z,17781.09
2023-04-22T15:27:38.370Z,17842.44
2023-04-22T15:31:39.987Z,17891.53
2023-04-22T15:35:41.430Z,17862.91
2023-04-22T15:39:43.258Z,17801.53
2023-04-22T15:43:46.046Z,17795.41
2023-04-22T15:47:47.889Z,17817.91
2023-04-22T15:51:49.350Z,17785.16
2023-04-22T15:55:50.821Z,17713.56
2023-04-22T16:00:06.905Z,17719.72
2023-04-22T16:04:12.169Z,17727.91
2023-04-22T16:08:13.856Z,17752.44
2023-04-22T16:12:15.620Z,17738.13
2023-04-22T16:16:18.655Z,17736.06
2023-04-22T16:20:20.406Z,17721.75
2023-04-22T16:24:21.768Z,17721.75
2023-04-22T16:28:23.364Z,17734.03
2023-04-22T16:32:26.258Z,17695.16
2023-04-22T16:36:27.715Z,17723.81
2023-04-22T16:40:29.366Z,17711.53
2023-04-22T16:44:30.771Z,17699.25
2023-04-22T16:48:33.570Z,17660.38
2023-04-22T16:52:35.041Z,17633.78
2023-04-22T16:56:36.527Z,17603.13
2023-04-22T17:00:38.409Z,17633.78
2023-04-22T17:04:41.401Z,17543.78
2023-04-22T17:08:42.826Z,17506.97
2023-04-22T17:12:47.009Z,17472.19
2023-04-22T17:16:49.160Z,17482.44
2023-04-22T17:20:52.007Z,17482.44
2023-04-22T17:24:53.618Z,17468.09
2023-04-22T17:28:55.112Z,17461.97
2023-04-22T17:32:56.707Z,17431.28
2023-04-22T17:37:00.543Z,17447.66
2023-04-22T17:41:02.162Z,17429.25
2023-04-22T17:45:04.308Z,17461.97
2023-04-22T17:49:05.778Z,17449.69
2023-04-22T17:53:08.795Z,17425.16
2023-04-22T17:57:10.242Z,17416.97
2023-04-22T18:01:11.698Z,17404.69
2023-04-22T18:05:13.511Z,17414.94
2023-04-22T18:09:16.675Z,17404.69
2023-04-22T18:13:18.166Z,17437.44
2023-04-22T18:17:19.567Z,17408.78
2023-04-22T18:21:21.036Z,17441.53
2023-04-22T18:25:23.873Z,17398.56
2023-04-22T18:29:25.370Z,17410.84
2023-04-22T18:33:26.836Z,17371.97
2023-04-22T18:37:28.218Z,17376.06
2023-04-22T18:41:31.109Z,17361.75
2023-04-22T18:45:32.732Z,17335.16
2023-04-22T18:49:34.223Z,17343.34
2023-04-22T18:53:35.974Z,17351.53
2023-04-22T18:57:38.771Z,17343.34
2023-04-22T19:01:40.289Z,17386.28
2023-04-22T19:05:41.755Z,17355.59
2023-04-22T19:09:43.156Z,17359.69
2023-04-22T19:13:46.172Z,17345.38
2023-04-22T19:17:47.616Z,17347.44
2023-04-22T19:21:49.131Z,17294.25
2023-04-22T19:25:50.673Z,17355.59
2023-04-22T19:29:53.614Z,17337.19
2023-04-22T19:33:55.108Z,17322.88
2023-04-22T19:37:59.220Z,17318.78
2023-04-22T19:42:01.656Z,17277.88
2023-04-22T19:46:05.045Z,17302.44
2023-04-22T19:50:08.422Z,17310.63
2023-04-22T19:54:11.207Z,17275.84
2023-04-22T19:58:13.681Z,17241.06
2023-04-22T20:02:16.999Z,17294.25
2023-04-22T20:06:19.342Z,17257.44
2023-04-22T20:10:20.868Z,17241.06
2023-04-22T20:14:22.475Z,17249.25
2023-04-22T20:18:25.772Z,17243.13
2023-04-22T20:22:27.252Z,17263.56
2023-04-22T20:26:29.027Z,17271.75
2023-04-22T20:30:30.811Z,17220.63
2023-04-22T20:34:34.273Z,17267.66
2023-04-22T20:38:36.545Z,17245.16
2023-04-22T20:42:38.142Z,17241.06
2023-04-22T20:46:39.614Z,17265.63
2023-04-22T20:50:42.502Z,17208.34
2023-04-22T20:54:43.967Z,17241.06
2023-04-22T20:58:46.777Z,17202.22
2023-04-22T21:02:48.879Z,17220.63
2023-04-22T21:06:52.299Z,17179.72
2023-04-22T21:10:55.496Z,17216.53
2023-04-22T21:14:57.504Z,17204.25
2023-04-22T21:18:59.581Z,17189.94
2023-04-22T21:23:02.659Z,17202.22
2023-04-22T21:27:05.431Z,17204.25
2023-04-22T21:31:07.452Z,17196.06
2023-04-22T21:35:09.149Z,17183.81
2023-04-22T21:39:12.180Z,17175.63
2023-04-22T21:43:13.692Z,17187.88
2023-04-22T21:47:15.240Z,17155.16
2023-04-22T21:51:18.110Z,17202.22
2023-04-22T21:55:21.320Z,17185.84
2023-04-22T21:59:22.803Z,17204.25
2023-04-22T22:03:24.362Z,17146.97
2023-04-22T22:07:26.114Z,17144.94
2023-04-22T22:11:31.303Z,17167.44
2023-04-22T22:15:32.922Z,17155.16
2023-04-22T22:19:34.370Z,17167.44
2023-04-22T22:23:35.851Z,17175.63
2023-04-22T22:27:40.342Z,17179.72
2023-04-22T22:31:41.865Z,17171.53
2023-04-22T22:35:43.332Z,17185.84
2023-04-22T22:39:44.945Z,17163.34
2023-04-22T22:43:47.702Z,17189.94
2023-04-22T22:47:49.190Z,17167.44
2023-04-22T22:51:50.680Z,17157.22
2023-04-22T22:55:52.052Z,17179.72
2023-04-22T22:59:54.760Z,17200.16
2023-04-22T23:03:56.367Z,17151.06
2023-04-22T23:07:58.069Z,17136.75
2023-04-22T23:11:59.486Z,17179.72
2023-04-22T23:16:02.401Z,17159.25
2023-04-22T23:20:05.165Z,17151.06
2023-04-22T23:24:08.495Z,17151.06
2023-04-22T23:28:10.282Z,17214.47
2023-04-22T23:32:15.229Z,17136.75
2023-04-22T23:36:18.157Z,17173.56
2023-04-22T23:40:19.781Z,17159.25
2023-04-22T23:44:21.533Z,17144.94
2023-04-22T23:48:24.356Z,17140.84
2023-04-22T23:52:25.774Z,17165.38
2023-04-22T23:56:27.848Z,17138.81
